sensor_id;sensor_type;location;lat;lon;timestamp;P1;durP1;ratioP1;P2;durP2;ratioP2
49820;SDS011;36893;52.520;13.450;2022-12-18T00:00:35;16.50;;;6.70;;
49820;SDS011;36893;52.520;13.450;2022-12-18T00:10:42;14.32;;;6.95;;
49820;SDS011;36893;52.520;13.450;2022-12-18T00:20:44;12.73;;;6.78;;
49820;SDS011;36893;52.520;13.450;2022-12-18T00:30:44;13.60;;;6.43;;
49820;SDS011;36893;52.520;13.450;2022-12-18T00:40:45;10.63;;;5.90;;
49820;SDS011;36893;52.520;13.450;2022-12-18T00:50:47;15.02;;;6.53;;
49820;SDS011;36893;52.520;13.450;2022-12-18T01:00:48;11.10;;;4.93;;
49820;SDS011;36893;52.520;13.450;2022-12-18T01:10:49;12.88;;;6.35;;
49820;SDS011;36893;52.520;13.450;2022-12-18T01:20:50;13.07;;;5.30;;
49820;SDS011;36893;52.520;13.450;2022-12-18T01:30:51;9.17;;;5.53;;
49820;SDS011;36893;52.520;13.450;2022-12-18T01:40:56;9.57;;;5.40;;
49820;SDS011;36893;52.520;13.450;2022-12-18T01:50:58;12.38;;;5.30;;
49820;SDS011;36893;52.520;13.450;2022-12-18T02:01:00;10.55;;;5.28;;
49820;SDS011;36893;52.520;13.450;2022-12-18T02:11:12;7.97;;;4.45;;
49820;SDS011;36893;52.520;13.450;2022-12-18T02:21:45;11.80;;;4.35;;
49820;SDS011;36893;52.520;13.450;2022-12-18T02:32:12;10.23;;;4.90;;
49820;SDS011;36893;52.520;13.450;2022-12-18T02:42:18;9.32;;;4.25;;
49820;SDS011;36893;52.520;13.450;2022-12-18T03:02:41;9.82;;;4.32;;
49820;SDS011;36893;52.520;13.450;2022-12-18T03:13:09;8.07;;;4.18;;
49820;SDS011;36893;52.520;13.450;2022-12-18T03:23:17;9.27;;;4.10;;
49820;SDS011;36893;52.520;13.450;2022-12-18T03:33:27;9.05;;;4.13;;
49820;SDS011;36893;52.520;13.450;2022-12-18T03:53:58;7.13;;;3.88;;
49820;SDS011;36893;52.520;13.450;2022-12-18T04:04:01;7.10;;;3.38;;
49820;SDS011;36893;52.520;13.450;2022-12-18T04:14:04;7.90;;;3.90;;
49820;SDS011;36893;52.520;13.450;2022-12-18T04:24:05;8.03;;;3.80;;
49820;SDS011;36893;52.520;13.450;2022-12-18T04:34:06;7.57;;;3.63;;
49820;SDS011;36893;52.520;13.450;2022-12-18T04:44:06;7.40;;;3.57;;
49820;SDS011;36893;52.520;13.450;2022-12-18T04:54:07;6.97;;;3.50;;
49820;SDS011;36893;52.520;13.450;2022-12-18T05:04:08;6.07;;;2.97;;
49820;SDS011;36893;52.520;13.450;2022-12-18T05:14:08;7.87;;;3.07;;
49820;SDS011;36893;52.520;13.450;2022-12-18T05:24:09;6.07;;;3.07;;
49820;SDS011;36893;52.520;13.450;2022-12-18T05:34:10;7.93;;;3.40;;
49820;SDS011;36893;52.520;13.450;2022-12-18T05:44:10;6.38;;;2.80;;
49820;SDS011;36893;52.520;13.450;2022-12-18T05:54:11;7.33;;;3.33;;
49820;SDS011;36893;52.520;13.450;2022-12-18T06:04:12;6.50;;;2.70;;
49820;SDS011;36893;52.520;13.450;2022-12-18T06:14:12;4.70;;;2.13;;
49820;SDS011;36893;52.520;13.450;2022-12-18T06:24:13;7.73;;;2.83;;
49820;SDS011;36893;52.520;13.450;2022-12-18T06:34:14;8.65;;;3.75;;
49820;SDS011;36893;52.520;13.450;2022-12-18T06:44:15;5.50;;;2.13;;
49820;SDS011;36893;52.520;13.450;2022-12-18T06:54:15;4.93;;;2.80;;
49820;SDS011;36893;52.520;13.450;2022-12-18T07:04:17;5.68;;;2.72;;
49820;SDS011;36893;52.520;13.450;2022-12-18T07:14:18;3.83;;;1.98;;
49820;SDS011;36893;52.520;13.450;2022-12-18T07:24:19;6.72;;;2.92;;
49820;SDS011;36893;52.520;13.450;2022-12-18T07:34:19;5.03;;;2.20;;
49820;SDS011;36893;52.520;13.450;2022-12-18T07:44:20;6.13;;;2.70;;
49820;SDS011;36893;52.520;13.450;2022-12-18T07:54:21;7.53;;;2.63;;
49820;SDS011;36893;52.520;13.450;2022-12-18T08:04:22;5.40;;;2.58;;
49820;SDS011;36893;52.520;13.450;2022-12-18T08:14:23;6.47;;;2.83;;
49820;SDS011;36893;52.520;13.450;2022-12-18T08:24:24;5.85;;;2.70;;
49820;SDS011;36893;52.520;13.450;2022-12-18T08:34:25;6.78;;;2.45;;
49820;SDS011;36893;52.520;13.450;2022-12-18T08:44:26;5.85;;;1.98;;
49820;SDS011;36893;52.520;13.450;2022-12-18T08:54:39;15.40;;;3.90;;
49820;SDS011;36893;52.520;13.450;2022-12-18T09:04:39;11.97;;;2.80;;
49820;SDS011;36893;52.520;13.450;2022-12-18T09:14:40;7.32;;;2.85;;
49820;SDS011;36893;52.520;13.450;2022-12-18T09:24:41;5.43;;;2.43;;
49820;SDS011;36893;52.520;13.450;2022-12-18T09:34:41;7.60;;;3.20;;
49820;SDS011;36893;52.520;13.450;2022-12-18T09:44:43;23.73;;;5.83;;
49820;SDS011;36893;52.520;13.450;2022-12-18T09:54:59;25.40;;;6.72;;
49820;SDS011;36893;52.520;13.450;2022-12-18T10:05:12;28.27;;;6.00;;
49820;SDS011;36893;52.520;13.450;2022-12-18T10:25:53;11.48;;;5.20;;
49820;SDS011;36893;52.520;13.450;2022-12-18T10:36:03;12.68;;;4.72;;
49820;SDS011;36893;52.520;13.450;2022-12-18T10:56:09;16.55;;;5.65;;
49820;SDS011;36893;52.520;13.450;2022-12-18T11:06:11;10.75;;;4.13;;
49820;SDS011;36893;52.520;13.450;2022-12-18T11:16:19;10.75;;;3.95;;
49820;SDS011;36893;52.520;13.450;2022-12-18T11:26:20;18.57;;;4.10;;
49820;SDS011;36893;52.520;13.450;2022-12-18T11:36:21;17.23;;;4.10;;
49820;SDS011;36893;52.520;13.450;2022-12-18T11:46:24;16.83;;;4.28;;
49820;SDS011;36893;52.520;13.450;2022-12-18T11:56:36;14.65;;;3.90;;
49820;SDS011;36893;52.520;13.450;2022-12-18T12:06:46;12.10;;;4.82;;
49820;SDS011;36893;52.520;13.450;2022-12-18T12:38:33;18.90;;;3.88;;
49820;SDS011;36893;52.520;13.450;2022-12-18T12:48:46;15.40;;;4.00;;
49820;SDS011;36893;52.520;13.450;2022-12-18T12:59:13;11.48;;;3.58;;
49820;SDS011;36893;52.520;13.450;2022-12-18T13:09:17;13.40;;;4.13;;
49820;SDS011;36893;52.520;13.450;2022-12-18T13:19:21;11.70;;;3.77;;
49820;SDS011;36893;52.520;13.450;2022-12-18T13:29:41;21.85;;;4.78;;
49820;SDS011;36893;52.520;13.450;2022-12-18T13:39:44;9.43;;;4.75;;
49820;SDS011;36893;52.520;13.450;2022-12-18T13:49:45;20.53;;;7.33;;
49820;SDS011;36893;52.520;13.450;2022-12-18T13:59:46;19.67;;;7.15;;
49820;SDS011;36893;52.520;13.450;2022-12-18T14:09:54;27.03;;;9.17;;
49820;SDS011;36893;52.520;13.450;2022-12-18T14:19:57;16.52;;;9.27;;
49820;SDS011;36893;52.520;13.450;2022-12-18T14:29:57;19.63;;;12.50;;
49820;SDS011;36893;52.520;13.450;2022-12-18T14:39:59;33.43;;;14.53;;
49820;SDS011;36893;52.520;13.450;2022-12-18T14:50:11;24.77;;;12.50;;
49820;SDS011;36893;52.520;13.450;2022-12-18T15:00:23;23.40;;;13.55;;
49820;SDS011;36893;52.520;13.450;2022-12-18T15:10:26;21.08;;;11.32;;
49820;SDS011;36893;52.520;13.450;2022-12-18T15:20:32;21.80;;;10.88;;
49820;SDS011;36893;52.520;13.450;2022-12-18T15:30:40;16.65;;;9.35;;
49820;SDS011;36893;52.520;13.450;2022-12-18T15:41:03;12.80;;;8.25;;
49820;SDS011;36893;52.520;13.450;2022-12-18T15:51:04;14.68;;;8.48;;
49820;SDS011;36893;52.520;13.450;2022-12-18T16:01:20;30.55;;;8.48;;
49820;SDS011;36893;52.520;13.450;2022-12-18T16:11:24;21.23;;;8.18;;
49820;SDS011;36893;52.520;13.450;2022-12-18T16:21:40;24.83;;;8.05;;
49820;SDS011;36893;52.520;13.450;2022-12-18T16:31:41;14.70;;;7.27;;
49820;SDS011;36893;52.520;13.450;2022-12-18T16:41:42;22.13;;;6.63;;
49820;SDS011;36893;52.520;13.450;2022-12-18T16:51:43;10.27;;;5.90;;
49820;SDS011;36893;52.520;13.450;2022-12-18T17:01:45;20.25;;;5.43;;
49820;SDS011;36893;52.520;13.450;2022-12-18T17:11:46;17.13;;;6.10;;
49820;SDS011;36893;52.520;13.450;2022-12-18T17:21:47;16.17;;;5.63;;
49820;SDS011;36893;52.520;13.450;2022-12-18T17:31:49;10.02;;;4.35;;
49820;SDS011;36893;52.520;13.450;2022-12-18T17:41:49;11.67;;;4.70;;
49820;SDS011;36893;52.520;13.450;2022-12-18T17:51:50;11.10;;;4.70;;
49820;SDS011;36893;52.520;13.450;2022-12-18T18:01:51;12.33;;;4.80;;
49820;SDS011;36893;52.520;13.450;2022-12-18T18:11:51;10.73;;;4.03;;
49820;SDS011;36893;52.520;13.450;2022-12-18T18:22:11;8.48;;;3.90;;
49820;SDS011;36893;52.520;13.450;2022-12-18T18:32:11;9.33;;;3.70;;
49820;SDS011;36893;52.520;13.450;2022-12-18T18:42:12;9.50;;;3.90;;
49820;SDS011;36893;52.520;13.450;2022-12-18T18:52:13;10.40;;;3.90;;
49820;SDS011;36893;52.520;13.450;2022-12-18T19:02:14;11.25;;;3.63;;
49820;SDS011;36893;52.520;13.450;2022-12-18T19:12:16;22.23;;;6.60;;
49820;SDS011;36893;52.520;13.450;2022-12-18T19:22:35;17.48;;;6.97;;
49820;SDS011;36893;52.520;13.450;2022-12-18T19:32:36;14.37;;;6.57;;
49820;SDS011;36893;52.520;13.450;2022-12-18T19:42:36;12.93;;;5.60;;
49820;SDS011;36893;52.520;13.450;2022-12-18T19:52:38;14.23;;;6.28;;
49820;SDS011;36893;52.520;13.450;2022-12-18T20:02:39;12.13;;;5.20;;
49820;SDS011;36893;52.520;13.450;2022-12-18T20:12:40;17.17;;;6.03;;
49820;SDS011;36893;52.520;13.450;2022-12-18T20:22:40;13.40;;;5.63;;
49820;SDS011;36893;52.520;13.450;2022-12-18T20:32:41;14.20;;;5.33;;
49820;SDS011;36893;52.520;13.450;2022-12-18T20:42:42;17.90;;;6.10;;
49820;SDS011;36893;52.520;13.450;2022-12-18T20:52:42;11.90;;;4.83;;
49820;SDS011;36893;52.520;13.450;2022-12-18T21:02:43;13.57;;;4.23;;
49820;SDS011;36893;52.520;13.450;2022-12-18T21:12:43;15.43;;;5.10;;
49820;SDS011;36893;52.520;13.450;2022-12-18T21:22:46;17.67;;;5.72;;
49820;SDS011;36893;52.520;13.450;2022-12-18T21:32:48;11.45;;;4.85;;
49820;SDS011;36893;52.520;13.450;2022-12-18T21:42:48;10.97;;;4.23;;
49820;SDS011;36893;52.520;13.450;2022-12-18T21:53:08;12.52;;;4.30;;
49820;SDS011;36893;52.520;13.450;2022-12-18T22:03:08;11.83;;;5.27;;
49820;SDS011;36893;52.520;13.450;2022-12-18T22:13:09;11.57;;;4.77;;
49820;SDS011;36893;52.520;13.450;2022-12-18T22:23:09;9.77;;;4.20;;
49820;SDS011;36893;52.520;13.450;2022-12-18T22:33:11;13.35;;;5.07;;
49820;SDS011;36893;52.520;13.450;2022-12-18T22:43:12;15.80;;;4.60;;
49820;SDS011;36893;52.520;13.450;2022-12-18T22:53:13;14.10;;;4.47;;
49820;SDS011;36893;52.520;13.450;2022-12-18T23:03:13;10.97;;;4.57;;
49820;SDS011;36893;52.520;13.450;2022-12-18T23:13:14;8.20;;;3.73;;
49820;SDS011;36893;52.520;13.450;2022-12-18T23:23:16;11.50;;;4.07;;
49820;SDS011;36893;52.520;13.450;2022-12-18T23:33:17;12.37;;;4.33;;
49820;SDS011;36893;52.520;13.450;2022-12-18T23:43:17;10.17;;;4.03;;
49820;SDS011;36893;52.520;13.450;2022-12-18T23:53:18;8.10;;;4.18;;
